Time;durP1;ratioP1;P1;durP2;ratioP2;P2;SDS_P1;SDS_P2;PMS_P1;PMS_P2;Temp;Humidity;BMP_temperature;BMP_pressure;BME280_temperature;BME280_humidity;BME280_pressure;Samples;Min_cycle;Max_cycle;Signal;HPM_P1;HPM_P2
2021/10/23 00:01:07;;;;;;;3.53;1.30;;;;;;;;;;5096924;28;20632;-56
2021/10/23 00:03:32;;;;;;;8.80;1.77;;;8.60;1.00;;;;;;5104890;28;20438;-57
2021/10/23 00:05:58;;;;;;;6.93;1.47;;;;;;;;;;5108180;28;20440;-58
2021/10/23 00:08:24;;;;;;;6.57;1.43;;;8.40;1.00;;;;;;5111298;28;20193;-58
2021/10/23 00:10:50;;;;;;;5.03;1.50;;;;;;;;;;5104763;28;20452;-58
2021/10/23 00:13:15;;;;;;;3.33;1.10;;;8.50;1.00;;;;;;5108813;28;20201;-56
2021/10/23 00:15:41;;;;;;;2.17;0.90;;;8.40;1.00;;;;;;5086842;28;20499;-56
2021/10/23 00:18:07;;;;;;;7.33;1.53;;;8.50;1.00;;;;;;5107323;28;20178;-59
2021/10/23 00:20:32;;;;;;;4.43;0.97;;;8.50;1.00;;;;;;5105910;28;20608;-58
2021/10/23 00:22:58;;;;;;;1.10;0.80;;;;;;;;;;5104138;28;20186;-58
2021/10/23 00:25:24;;;;;;;2.30;1.23;;;;;;;;;;5110029;28;20558;-56
2021/10/23 00:27:50;;;;;;;4.63;1.40;;;;;;;;;;5103421;28;20752;-57
2021/10/23 00:30:16;;;;;;;4.53;1.27;;;;;;;;;;5106491;28;20449;-58
2021/10/23 00:32:43;;;;;;;2.20;0.87;;;8.50;1.00;;;;;;5102208;28;20428;-59
2021/10/23 00:35:09;;;;;;;2.43;1.10;;;8.40;1.00;;;;;;5103436;28;20488;-58
2021/10/23 00:37:35;;;;;;;5.70;1.73;;;;;;;;;;5110583;28;20871;-57
2021/10/23 00:40:00;;;;;;;2.00;1.47;;;8.50;1.00;;;;;;5111327;28;20527;-58
2021/10/23 00:42:26;;;;;;;5.10;1.23;;;8.50;1.00;;;;;;5109030;28;20472;-56
2021/10/23 00:44:52;;;;;;;3.93;1.37;;;;;;;;;;5110999;28;20195;-57
2021/10/23 00:47:20;;;;;;;1.63;1.00;;;8.60;1.00;;;;;;5111316;28;20382;-56
2021/10/23 00:49:50;;;;;;;2.67;1.00;;;8.50;1.00;;;;;;5102951;28;20475;-57
2021/10/23 00:52:15;;;;;;;5.97;1.23;;;8.50;1.00;;;;;;5099478;28;20441;-56
2021/10/23 00:54:41;;;;;;;2.37;1.10;;;8.40;1.00;;;;;;5102189;28;20439;-58
2021/10/23 00:57:07;;;;;;;3.90;1.10;;;8.40;1.00;;;;;;5100318;28;20177;-56
2021/10/23 00:59:33;;;;;;;5.47;1.30;;;8.30;1.00;;;;;;5106179;28;20638;-58
2021/10/23 01:02:00;;;;;;;2.23;1.07;;;8.30;1.00;;;;;;5106179;28;20440;-57
2021/10/23 01:04:26;;;;;;;4.60;1.20;;;;;;;;;;5100743;28;20440;-57
2021/10/23 01:06:52;;;;;;;4.57;1.17;;;8.30;1.00;;;;;;5098544;28;21014;-57
2021/10/23 01:09:18;;;;;;;4.30;0.97;;;8.40;1.00;;;;;;5099848;28;20445;-58
2021/10/23 01:11:44;;;;;;;2.30;0.97;;;;;;;;;;5102920;28;21038;-57
2021/10/23 01:14:18;;;;;;;5.00;1.30;;;8.30;1.00;;;;;;5110911;28;20265;-57
2021/10/23 01:16:45;;;;;;;2.53;1.40;;;8.40;1.00;;;;;;5098382;28;20469;-56
2021/10/23 01:19:12;;;;;;;6.50;1.30;;;;;;;;;;5106656;28;20947;-57
2021/10/23 01:21:39;;;;;;;3.90;1.20;;;8.50;1.00;;;;;;5101998;28;20449;-57
2021/10/23 01:24:06;;;;;;;4.07;1.40;;;8.60;1.00;;;;;;5093899;28;20441;-56
2021/10/23 01:26:32;;;;;;;4.30;2.00;;;8.50;1.00;;;;;;5097229;28;20495;-57
2021/10/23 01:28:58;;;;;;;3.63;1.40;;;;;;;;;;5094551;28;20480;-57
2021/10/23 01:31:27;;;;;;;6.90;1.80;;;8.70;1.00;;;;;;5098774;28;20455;-57
2021/10/23 01:33:53;;;;;;;4.50;1.53;;;8.60;1.00;;;;;;5105567;28;20525;-58
2021/10/23 01:36:18;;;;;;;2.27;1.20;;;8.50;1.00;;;;;;5094823;28;20475;-55
2021/10/23 01:38:45;;;;;;;8.57;1.33;;;8.50;1.00;;;;;;5110580;28;20376;-56
2021/10/23 01:41:11;;;;;;;4.93;1.73;;;8.50;1.00;;;;;;5108795;28;20182;-56
2021/10/23 01:43:37;;;;;;;2.20;1.17;;;8.50;1.00;;;;;;5105921;28;20437;-56
2021/10/23 01:46:03;;;;;;;4.23;1.20;;;9.20;1.00;;;;;;5100050;28;20952;-56
2021/10/23 01:48:29;;;;;;;3.10;1.37;;;;;;;;;;5089076;28;20456;-56
2021/10/23 01:50:55;;;;;;;3.17;1.10;;;;;;;;;;5102318;28;20791;-56
2021/10/23 01:53:21;;;;;;;7.70;1.20;;;;;;;;;;5103647;28;20791;-55
2021/10/23 01:55:47;;;;;;;3.73;1.23;;;;;;;;;;5096284;28;20468;-56
2021/10/23 01:58:16;;;;;;;2.60;1.20;;;;;;;;;;5094505;28;20448;-56
2021/10/23 02:00:42;;;;;;;4.40;1.37;;;8.50;1.00;;;;;;5094104;28;20433;-56
2021/10/23 02:03:08;;;;;;;6.00;1.70;;;;;;;;;;5103408;28;20967;-56
2021/10/23 02:05:33;;;;;;;3.30;1.17;;;8.60;1.00;;;;;;5108350;28;20327;-57
2021/10/23 02:07:59;;;;;;;3.17;1.40;;;8.70;1.00;;;;;;5109077;28;20456;-58
2021/10/23 02:10:25;;;;;;;2.60;1.30;;;;;;;;;;5096296;28;20194;-56
2021/10/23 02:12:50;;;;;;;7.07;1.53;;;8.50;1.00;;;;;;5079275;28;20191;-57
2021/10/23 02:15:16;;;;;;;3.70;1.50;;;8.40;1.00;;;;;;5104949;28;20497;-56
2021/10/23 02:17:42;;;;;;;2.50;1.10;;;;;;;;;;5108021;28;20217;-56
2021/10/23 02:20:10;;;;;;;2.63;1.10;;;8.10;1.00;;;;;;5106739;28;20494;-57
2021/10/23 02:22:37;;;;;;;3.23;1.20;;;8.20;1.00;;;;;;5092850;28;20449;-57
2021/10/23 02:25:04;;;;;;;5.93;1.23;;;8.20;1.00;;;;;;5095732;28;20463;-57
2021/10/23 02:27:30;;;;;;;4.87;1.43;;;8.10;1.00;;;;;;5099464;28;20445;-58
2021/10/23 02:29:55;;;;;;;5.40;1.27;;;7.90;1.00;;;;;;5088410;28;20455;-57
2021/10/23 02:32:21;;;;;;;7.33;1.80;;;;;;;;;;5104270;28;20190;-56
2021/10/23 02:34:47;;;;;;;5.80;1.60;;;;;;;;;;5105350;28;20186;-55
2021/10/23 02:37:13;;;;;;;6.43;1.63;;;7.90;1.00;;;;;;5095380;28;20901;-56
2021/10/23 02:39:39;;;;;;;5.90;0.80;;;;;;;;;;5096061;28;20441;-56
2021/10/23 02:42:05;;;;;;;4.40;1.83;;;8.10;1.00;;;;;;5098355;28;20442;-57
2021/10/23 02:44:31;;;;;;;9.23;2.17;;;8.00;1.00;;;;;;5098941;28;20445;-57
2021/10/23 02:46:56;;;;;;;4.03;1.63;;;8.20;1.00;;;;;;5106591;28;20475;-58
2021/10/23 02:49:23;;;;;;;1.73;1.10;;;8.10;1.00;;;;;;5103631;28;20246;-57
2021/10/23 02:51:49;;;;;;;3.30;1.33;;;8.10;1.00;;;;;;5106598;28;20529;-57
2021/10/23 02:54:15;;;;;;;4.53;1.40;;;;;;;;;;5098236;28;20548;-56
2021/10/23 02:56:40;;;;;;;4.37;1.40;;;7.80;1.00;;;;;;5078297;28;20237;-57
2021/10/23 02:59:06;;;;;;;4.60;1.47;;;;;;;;;;5101397;28;20506;-57
2021/10/23 03:01:32;;;;;;;4.67;1.20;;;;;;;;;;5101534;28;20270;-57
2021/10/23 03:03:58;;;;;;;3.23;1.67;;;;;;;;;;5100104;28;20792;-56
2021/10/23 03:06:24;;;;;;;5.20;1.40;;;;;;;;;;5099645;28;20448;-56
2021/10/23 03:08:50;;;;;;;6.13;2.13;;;;;;;;;;5106177;28;20499;-57
2021/10/23 03:11:16;;;;;;;6.63;1.50;;;;;;;;;;5106533;28;20932;-55
2021/10/23 03:13:42;;;;;;;4.10;1.70;;;;;;;;;;5103303;28;20864;-57
2021/10/23 03:16:09;;;;;;;2.30;1.13;;;;;;;;;;5108963;28;20468;-56
2021/10/23 03:18:35;;;;;;;4.67;0.90;;;;;;;;;;5085475;28;20440;-56
2021/10/23 03:21:01;;;;;;;6.37;1.67;;;;;;;;;;5100670;28;20531;-57
2021/10/23 03:23:27;;;;;;;7.80;2.23;;;7.80;1.00;;;;;;5098032;28;20523;-56
2021/10/23 03:25:53;;;;;;;1.37;1.00;;;;;;;;;;5098821;28;20555;-56
2021/10/23 03:28:18;;;;;;;2.80;1.03;;;7.50;1.00;;;;;;5094722;28;20194;-57
2021/10/23 03:30:44;;;;;;;6.60;1.73;;;;;;;;;;5105685;28;20854;-57
2021/10/23 03:33:10;;;;;;;4.40;1.00;;;;;;;;;;5102920;28;20183;-56
2021/10/23 03:35:36;;;;;;;4.33;2.00;;;;;;;;;;5087044;28;20817;-56
2021/10/23 03:38:02;;;;;;;4.87;1.57;;;;;;;;;;5097769;28;20870;-56
2021/10/23 03:40:28;;;;;;;4.40;1.53;;;;;;;;;;5106292;28;20955;-56
2021/10/23 03:42:54;;;;;;;7.53;1.40;;;7.80;1.00;;;;;;5100501;28;20456;-56
2021/10/23 03:45:19;;;;;;;6.10;1.40;;;7.90;1.00;;;;;;5095619;28;20451;-57
2021/10/23 03:47:45;;;;;;;5.80;1.40;;;7.80;1.00;;;;;;5073494;28;20236;-56
2021/10/23 03:50:11;;;;;;;5.27;1.97;;;7.70;1.00;;;;;;5083045;28;20664;-57
2021/10/23 03:52:37;;;;;;;5.97;1.80;;;;;;;;;;5084337;28;20471;-56
2021/10/23 03:55:04;;;;;;;8.07;1.73;;;7.60;1.00;;;;;;5081837;28;20469;-56
2021/10/23 03:57:30;;;;;;;4.53;1.60;;;;;;;;;;5083497;28;20525;-56
2021/10/23 03:59:56;;;;;;;3.70;1.50;;;;;;;;;;5085037;28;20929;-56
2021/10/23 04:02:22;;;;;;;8.00;1.80;;;;;;;;;;5086423;28;20871;-57
2021/10/23 04:04:48;;;;;;;8.47;1.90;;;;;;;;;;5087056;28;20593;-56
2021/10/23 04:07:14;;;;;;;6.60;1.47;;;;;;;;;;5089682;28;20472;-58
2021/10/23 04:09:40;;;;;;;9.80;1.57;;;;;;;;;;5086719;28;20448;-58
2021/10/23 04:12:06;;;;;;;12.70;2.43;;;7.60;1.00;;;;;;5080972;28;20444;-57
2021/10/23 04:14:31;;;;;;;4.50;1.60;;;7.40;1.00;;;;;;5088747;28;20773;-55
2021/10/23 04:16:57;;;;;;;7.97;1.90;;;;;;;;;;5074974;28;20212;-58
2021/10/23 04:19:23;;;;;;;7.30;1.47;;;;;;;;;;5088231;28;20272;-58
2021/10/23 04:21:49;;;;;;;8.03;1.60;;;;;;;;;;5085493;28;20961;-55
2021/10/23 04:24:15;;;;;;;10.30;1.80;;;7.50;1.00;;;;;;5086644;28;20452;-57
2021/10/23 04:26:41;;;;;;;6.93;1.77;;;7.70;1.00;;;;;;5068644;28;20470;-57
2021/10/23 04:29:07;;;;;;;2.13;1.17;;;7.60;1.00;;;;;;5079716;28;20179;-57
2021/10/23 04:31:33;;;;;;;6.17;1.43;;;;;;;;;;5081998;28;20194;-56
2021/10/23 04:34:01;;;;;;;4.67;2.43;;;7.40;1.00;;;;;;5091631;28;20906;-58
2021/10/23 04:36:26;;;;;;;7.80;2.37;;;7.40;1.00;;;;;;5081460;28;20473;-57
2021/10/23 04:38:52;;;;;;;3.13;1.50;;;7.50;1.00;;;;;;5080070;28;20467;-57
2021/10/23 04:41:18;;;;;;;9.27;1.70;;;;;;;;;;5081642;28;20314;-57
2021/10/23 04:43:44;;;;;;;5.30;1.73;;;;;;;;;;5073893;28;20614;-57
2021/10/23 04:46:10;;;;;;;6.30;1.70;;;;;;;;;;5092133;28;20514;-58
2021/10/23 04:48:36;;;;;;;8.23;2.13;;;;;;;;;;5080694;28;20484;-57
2021/10/23 04:51:02;;;;;;;4.03;1.53;;;;;;;;;;5109497;28;20958;-57
2021/10/23 04:53:28;;;;;;;5.13;1.20;;;;;;;;;;5105320;28;20456;-58
2021/10/23 04:55:54;;;;;;;5.23;2.50;;;7.50;1.00;;;;;;5110326;28;20459;-58
2021/10/23 04:58:19;;;;;;;3.10;1.50;;;7.50;1.00;;;;;;5096553;28;20929;-57
2021/10/23 05:00:45;;;;;;;7.77;2.17;;;;;;;;;;5096524;28;20267;-57
2021/10/23 05:03:11;;;;;;;5.27;1.77;;;;;;;;;;5100142;28;20202;-57
2021/10/23 05:05:37;;;;;;;9.50;1.93;;;;;;;;;;5106130;28;20842;-57
2021/10/23 05:08:03;;;;;;;7.30;2.57;;;;;;;;;;5097266;28;20473;-58
2021/10/23 05:10:29;;;;;;;4.60;1.73;;;7.40;1.00;;;;;;5093786;28;20977;-56
2021/10/23 05:12:55;;;;;;;6.70;1.27;;;;;;;;;;5079275;28;20477;-57
2021/10/23 05:15:21;;;;;;;8.93;2.03;;;;;;;;;;5101942;28;20609;-56
2021/10/23 05:17:46;;;;;;;4.70;1.40;;;7.30;1.00;;;;;;5096953;28;20451;-57
2021/10/23 05:20:12;;;;;;;7.30;2.10;;;;;;;;;;5102756;28;21215;-58
2021/10/23 05:22:38;;;;;;;7.47;2.00;;;;;;;;;;5096843;28;20213;-59
2021/10/23 05:25:04;;;;;;;4.03;2.00;;;7.60;1.00;;;;;;5098800;28;20453;-57
2021/10/23 05:27:31;;;;;;;7.00;2.57;;;7.30;1.00;;;;;;5098424;28;20444;-56
2021/10/23 05:29:57;;;;;;;8.47;2.10;;;;;;;;;;5095869;28;20441;-58
2021/10/23 05:32:22;;;;;;;10.00;2.00;;;7.40;1.00;;;;;;5084377;28;20477;-56
2021/10/23 05:34:48;;;;;;;3.50;2.00;;;;;;;;;;5096908;28;20849;-57
2021/10/23 05:37:14;;;;;;;7.07;2.10;;;;;;;;;;5105587;28;20227;-57
2021/10/23 05:39:40;;;;;;;5.80;2.13;;;;;;;;;;5094522;28;20471;-58
2021/10/23 05:42:06;;;;;;;9.87;3.03;;;7.60;1.00;;;;;;5081554;28;20491;-58
2021/10/23 05:44:32;;;;;;;7.47;1.57;;;;;;;;;;5093693;28;20562;-57
2021/10/23 05:46:58;;;;;;;3.03;2.57;;;;;;;;;;5095950;28;20579;-57
2021/10/23 05:49:24;;;;;;;5.23;2.27;;;;;;;;;;5106348;28;20443;-57
2021/10/23 05:51:54;;;;;;;7.43;1.73;;;7.70;1.00;;;;;;5102828;28;20483;-57
2021/10/23 05:54:20;;;;;;;8.37;1.87;;;7.70;1.00;;;;;;5100372;28;20506;-57
2021/10/23 05:56:47;;;;;;;6.63;2.17;;;;;;;;;;5101032;28;20467;-56
2021/10/23 05:59:14;;;;;;;8.10;2.00;;;7.70;1.00;;;;;;5079440;28;20920;-56
2021/10/23 06:01:43;;;;;;;5.60;2.10;;;7.70;1.00;;;;;;5094905;28;20915;-57
2021/10/23 06:04:09;;;;;;;6.07;1.97;;;;;;;;;;5108466;28;20463;-57
2021/10/23 06:06:35;;;;;;;5.87;2.10;;;;;;;;;;5102550;28;20481;-57
2021/10/23 06:09:03;;;;;;;4.97;1.83;;;7.60;1.00;;;;;;5100386;28;20531;-56
2021/10/23 06:11:29;;;;;;;4.40;1.73;;;;;;;;;;5098804;28;20439;-56
2021/10/23 06:13:58;;;;;;;6.07;2.37;;;7.50;1.00;;;;;;5105248;28;20415;-56
2021/10/23 06:16:27;;;;;;;5.43;1.60;;;;;;;;;;5095370;28;20552;-57
2021/10/23 06:18:53;;;;;;;9.00;2.03;;;7.40;1.00;;;;;;5098685;28;20948;-58
2021/10/23 06:21:18;;;;;;;9.67;2.50;;;7.50;1.00;;;;;;5099473;28;20545;-57
2021/10/23 06:23:44;;;;;;;6.90;1.90;;;;;;;;;;5093532;28;20250;-57
2021/10/23 06:26:10;;;;;;;5.80;2.10;;;;;;;;;;5086252;28;20194;-58
2021/10/23 06:28:36;;;;;;;5.07;1.67;;;;;;;;;;5101044;28;20505;-57
2021/10/23 06:31:03;;;;;;;5.50;1.93;;;7.50;1.00;;;;;;5093518;28;20440;-57
2021/10/23 06:33:29;;;;;;;9.00;2.63;;;7.50;1.00;;;;;;5094410;28;20444;-58
2021/10/23 06:35:54;;;;;;;5.03;1.83;;;7.50;1.00;;;;;;5097784;28;20947;-56
2021/10/23 06:38:20;;;;;;;4.77;2.50;;;7.40;1.00;;;;;;5101059;28;20575;-58
2021/10/23 06:40:45;;;;;;;8.20;2.33;;;7.30;1.00;;;;;;5091010;28;20230;-57
2021/10/23 06:43:12;;;;;;;7.00;1.57;;;7.40;1.00;;;;;;5095552;28;20226;-58
2021/10/23 06:45:37;;;;;;;7.60;2.20;;;7.50;1.00;;;;;;5092831;28;20182;-59
2021/10/23 06:48:03;;;;;;;3.80;2.23;;;7.70;1.00;;;;;;5092758;28;20977;-58
2021/10/23 06:50:29;;;;;;;8.80;2.33;;;;;;;;;;5089537;28;20581;-58
2021/10/23 06:52:55;;;;;;;6.20;2.77;;;7.80;1.00;;;;;;5099306;28;20877;-58
2021/10/23 06:55:20;;;;;;;6.13;2.30;;;8.20;1.00;;;;;;5101851;28;20460;-58
2021/10/23 06:57:46;;;;;;;8.67;2.23;;;;;;;;;;5076447;28;20277;-57
2021/10/23 07:00:13;;;;;;;5.50;1.80;;;8.10;1.00;;;;;;5097324;28;20252;-59
2021/10/23 07:02:40;;;;;;;5.93;2.10;;;8.10;1.00;;;;;;5098057;28;20724;-58
2021/10/23 07:05:20;;;;;;;7.10;1.90;;;8.10;1.00;;;;;;5091587;28;20438;-57
2021/10/23 07:07:46;;;;;;;6.20;1.90;;;;;;;;;;5092686;28;20945;-57
2021/10/23 07:10:12;;;;;;;5.70;2.10;;;;;;;;;;5103841;28;20937;-57
2021/10/23 07:12:39;;;;;;;7.00;2.37;;;8.10;1.00;;;;;;5095947;28;20436;-59
2021/10/23 07:15:05;;;;;;;10.00;2.23;;;8.20;1.00;;;;;;5099394;28;20960;-58
2021/10/23 07:17:31;;;;;;;6.77;2.23;;;8.30;1.00;;;;;;5099714;28;20487;-57
2021/10/23 07:19:57;;;;;;;8.73;2.10;;;;;;;;;;5099083;28;20745;-57
2021/10/23 07:22:23;;;;;;;8.87;1.63;;;;;;;;;;5097047;28;20316;-58
2021/10/23 07:24:50;;;;;;;5.83;2.20;;;8.40;1.00;;;;;;5089900;28;20436;-56
2021/10/23 07:27:15;;;;;;;4.50;2.00;;;8.70;1.00;;;;;;5099918;28;20443;-57
2021/10/23 07:29:41;;;;;;;4.70;1.80;;;;;;;;;;5097784;28;20436;-59
2021/10/23 07:32:08;;;;;;;7.07;1.73;;;8.90;1.00;;;;;;5096967;28;20640;-58
2021/10/23 07:34:34;;;;;;;10.33;2.43;;;8.70;1.00;;;;;;5103077;28;20449;-58
2021/10/23 07:37:00;;;;;;;7.70;1.60;;;;;;;;;;5099213;28;20495;-57
2021/10/23 07:39:26;;;;;;;5.20;1.70;;;;;;;;;;5100346;28;20444;-59
2021/10/23 07:41:51;;;;;;;4.27;1.80;;;9.00;1.00;;;;;;5096126;28;20451;-57
2021/10/23 07:44:17;;;;;;;7.70;2.00;;;;;;;;;;5100442;28;20452;-60
2021/10/23 07:46:44;;;;;;;8.90;2.57;;;9.30;1.00;;;;;;5107756;28;20687;-58
2021/10/23 07:49:09;;;;;;;7.00;2.30;;;9.10;1.00;;;;;;5100549;28;20505;-58
2021/10/23 07:51:36;;;;;;;5.73;1.83;;;9.10;1.00;;;;;;5100707;28;20737;-59
2021/10/23 07:54:06;;;;;;;5.97;2.10;;;9.20;1.00;;;;;;5109549;28;20790;-58
2021/10/23 07:56:32;;;;;;;8.17;2.43;;;9.30;1.00;;;;;;5101133;28;20917;-59
2021/10/23 07:58:59;;;;;;;4.53;1.83;;;;;;;;;;5102513;28;20519;-57
2021/10/23 08:01:25;;;;;;;3.20;1.50;;;9.20;1.00;;;;;;5100145;28;20705;-59
2021/10/23 08:03:51;;;;;;;4.83;1.97;;;9.10;1.00;;;;;;5105078;28;20444;-57
2021/10/23 08:06:17;;;;;;;5.53;1.50;;;;;;;;;;5082893;28;20485;-57
2021/10/23 08:08:42;;;;;;;9.73;1.83;;;9.20;1.00;;;;;;5101496;28;20270;-57
2021/10/23 08:11:08;;;;;;;6.00;1.73;;;;;;;;;;5085832;28;20448;-59
2021/10/23 08:13:34;;;;;;;5.70;1.57;;;;;;;;;;5098828;28;20269;-58
2021/10/23 08:16:01;;;;;;;6.00;2.10;;;9.00;1.00;;;;;;5078451;28;20473;-57
2021/10/23 08:18:27;;;;;;;11.53;2.37;;;9.30;1.00;;;;;;5112989;28;20529;-58
2021/10/23 08:20:53;;;;;;;4.73;1.57;;;;;;;;;;5099135;28;20464;-58
2021/10/23 08:23:20;;;;;;;6.00;1.73;;;9.50;1.00;;;;;;5103736;28;20475;-58
2021/10/23 08:25:46;;;;;;;10.33;2.20;;;;;;;;;;5103407;28;20440;-59
2021/10/23 08:28:11;;;;;;;3.90;1.70;;;9.60;1.00;;;;;;5084847;28;20452;-59
2021/10/23 08:30:37;;;;;;;4.17;1.83;;;9.50;1.00;;;;;;5098483;28;20463;-59
2021/10/23 08:33:03;;;;;;;5.50;1.70;;;9.60;1.00;;;;;;5093305;28;20652;-58
2021/10/23 08:35:29;;;;;;;5.53;2.30;;;;;;;;;;5106034;28;20195;-58
2021/10/23 08:37:56;;;;;;;6.03;2.07;;;10.20;1.00;;;;;;5102040;28;20779;-58
2021/10/23 08:40:22;;;;;;;9.00;2.37;;;10.40;1.00;;;;;;5101473;28;20447;-59
2021/10/23 08:42:48;;;;;;;4.13;2.13;;;10.50;1.00;;;;;;5102131;28;20867;-57
2021/10/23 08:45:15;;;;;;;11.00;2.13;;;10.30;1.00;;;;;;5100547;28;20473;-57
2021/10/23 08:47:42;;;;;;;8.50;2.30;;;10.30;1.00;;;;;;5096164;28;20572;-58
2021/10/23 08:50:11;;;;;;;4.60;2.30;;;10.20;1.00;;;;;;5093988;28;20481;-58
2021/10/23 08:52:37;;;;;;;7.50;2.40;;;10.20;1.00;;;;;;5096050;28;20804;-58
2021/10/23 08:55:04;;;;;;;6.40;2.00;;;10.20;1.00;;;;;;5098060;28;20446;-58
2021/10/23 08:57:29;;;;;;;6.47;1.60;;;10.20;1.00;;;;;;5093102;28;20190;-59
2021/10/23 08:59:56;;;;;;;8.90;2.20;;;10.20;1.00;;;;;;5096828;28;20441;-60
2021/10/23 09:02:23;;;;;;;6.77;2.27;;;10.20;1.00;;;;;;5097438;28;20532;-59
2021/10/23 09:04:49;;;;;;;6.40;2.33;;;10.10;1.00;;;;;;5104913;28;20474;-58
2021/10/23 09:07:16;;;;;;;6.07;2.03;;;10.30;1.00;;;;;;5106592;28;20491;-58
2021/10/23 09:09:44;;;;;;;5.43;1.97;;;10.30;1.00;;;;;;5108163;28;20449;-57
2021/10/23 09:12:29;;;;;;;5.17;2.13;;;10.20;1.00;;;;;;5096344;28;20961;-58
2021/10/23 09:15:03;;;;;;;5.70;2.10;;;10.30;1.00;;;;;;5084290;28;20506;-58
2021/10/23 09:17:29;;;;;;;7.70;2.00;;;;;;;;;;5098624;28;20428;-58
2021/10/23 09:19:56;;;;;;;7.70;1.87;;;10.60;1.00;;;;;;5107440;28;20440;-60
2021/10/23 09:22:22;;;;;;;9.37;1.97;;;;;;;;;;5099449;28;20455;-58
2021/10/23 09:24:49;;;;;;;5.07;1.70;;;10.60;1.00;;;;;;5074894;28;20429;-58
2021/10/23 09:27:16;;;;;;;2.80;1.50;;;10.70;1.00;;;;;;5092688;28;20448;-57
2021/10/23 09:29:42;;;;;;;3.80;1.93;;;;;;;;;;5075960;28;20445;-59
2021/10/23 09:32:10;;;;;;;3.53;1.63;;;10.70;1.00;;;;;;5091553;28;20441;-58
2021/10/23 09:34:36;;;;;;;6.47;2.37;;;;;;;;;;5091799;28;20766;-59
2021/10/23 09:37:03;;;;;;;6.40;1.63;;;10.70;1.00;;;;;;5108773;28;20464;-58
2021/10/23 09:39:34;;;;;;;12.37;2.10;;;10.90;1.00;;;;;;5111898;28;20927;-59
2021/10/23 09:42:08;;;;;;;11.30;2.00;;;10.80;1.00;;;;;;5111271;28;20951;-58
2021/10/23 09:44:38;;;;;;;8.00;1.60;;;10.80;1.00;;;;;;5111680;28;20820;-57
2021/10/23 09:47:04;;;;;;;9.93;1.90;;;10.90;1.00;;;;;;5111632;28;20498;-59
2021/10/23 09:49:30;;;;;;;3.93;1.50;;;;;;;;;;5111521;28;20887;-58
2021/10/23 09:52:07;;;;;;;7.87;2.30;;;11.00;1.00;;;;;;5111650;28;20190;-58
2021/10/23 09:54:35;;;;;;;6.07;2.00;;;10.90;1.00;;;;;;5111110;28;20436;-58
2021/10/23 09:57:09;;;;;;;7.37;3.20;;;11.00;1.00;;;;;;5111777;28;20496;-60
2021/10/23 09:59:38;;;;;;;6.33;2.00;;;;;;;;;;5092935;28;20475;-59
2021/10/23 10:02:05;;;;;;;6.33;2.33;;;10.80;1.00;;;;;;5111274;28;20518;-58
2021/10/23 10:04:32;;;;;;;15.03;1.90;;;10.80;1.00;;;;;;5103555;28;20455;-58
2021/10/23 10:07:00;;;;;;;6.10;1.83;;;11.10;1.00;;;;;;5091052;28;20568;-58
2021/10/23 10:09:26;;;;;;;5.00;2.20;;;11.30;1.00;;;;;;5092982;28;20440;-59
2021/10/23 10:11:55;;;;;;;6.43;1.70;;;11.20;1.00;;;;;;5110437;28;20440;-59
2021/10/23 10:14:34;;;;;;;8.00;2.50;;;11.40;1.00;;;;;;5110856;28;20189;-60
2021/10/23 10:17:02;;;;;;;5.80;2.10;;;11.60;1.00;;;;;;5111329;28;20930;-59
2021/10/23 10:19:27;;;;;;;10.87;1.77;;;11.80;1.00;;;;;;5111043;28;20448;-59
2021/10/23 10:21:54;;;;;;;6.63;2.60;;;11.90;1.00;;;;;;5092868;28;20411;-58
2021/10/23 10:24:32;;;;;;;11.93;1.77;;;12.20;1.00;;;;;;5110574;28;20183;-58
2021/10/23 10:27:11;;;;;;;4.03;1.87;;;12.10;1.00;;;;;;5092676;28;20448;-59
2021/10/23 10:30:00;;;;;;;6.93;1.77;;;11.80;1.00;;;;;;5110718;28;20956;-59
2021/10/23 10:32:38;;;;;;;6.70;2.00;;;11.80;1.00;;;;;;5108903;28;20536;-60
2021/10/23 10:38:26;;;;;;;4.80;1.73;;;12.10;1.00;;;;;;5090004;28;20433;-58
2021/10/23 10:43:10;;;;;;;8.73;2.37;;;12.70;1.00;;;;;;5090673;28;20407;-58
2021/10/23 10:45:43;;;;;;;5.87;1.60;;;12.90;1.00;;;;;;5090058;28;20518;-59
2021/10/23 10:48:14;;;;;;;5.70;1.93;;;12.80;1.00;;;;;;5082383;28;20859;-58
2021/10/23 10:51:08;;;;;;;4.87;1.73;;;12.40;1.00;;;;;;5110408;28;20903;-60
2021/10/23 10:53:59;;;;;;;11.03;1.80;;;12.60;1.00;;;;;;5100477;28;20476;-58
2021/10/23 10:56:39;;;;;;;5.77;1.73;;;12.20;1.00;;;;;;5089576;28;20475;-58
2021/10/23 10:59:05;;;;;;;5.17;1.33;;;12.00;1.00;;;;;;5093335;28;20415;-58
2021/10/23 11:01:34;;;;;;;4.20;1.70;;;12.30;1.00;;;;;;5093574;28;20438;-59
2021/10/23 11:04:03;;;;;;;3.53;1.77;;;;;;;;;;5096467;28;20182;-59
2021/10/23 11:06:34;;;;;;;3.03;1.60;;;12.60;1.00;;;;;;5096992;28;20433;-58
2021/10/23 11:09:15;;;;;;;5.50;1.93;;;12.90;1.00;;;;;;5094714;28;20461;-59
2021/10/23 11:11:49;;;;;;;5.17;1.70;;;12.70;1.00;;;;;;5107577;28;20923;-60
2021/10/23 11:14:21;;;;;;;5.70;2.10;;;12.40;1.00;;;;;;5114801;28;20875;-58
2021/10/23 11:16:52;;;;;;;5.20;1.47;;;12.60;1.00;;;;;;5110387;28;20428;-57
2021/10/23 11:19:38;;;;;;;5.23;2.10;;;12.50;1.00;;;;;;5115083;28;20448;-59
2021/10/23 11:22:10;;;;;;;3.97;1.73;;;12.60;1.00;;;;;;5113930;28;20987;-58
2021/10/23 11:24:42;;;;;;;5.20;1.53;;;12.90;1.00;;;;;;5105776;28;20445;-58
2021/10/23 11:27:28;;;;;;;6.43;1.93;;;12.90;1.00;;;;;;5098463;28;20442;-58
2021/10/23 11:30:13;;;;;;;5.60;1.90;;;12.60;1.00;;;;;;5097190;28;20477;-57
2021/10/23 11:32:52;;;;;;;3.87;2.00;;;12.50;1.00;;;;;;5099684;28;20499;-59
2021/10/23 11:35:18;;;;;;;10.17;2.80;;;;;;;;;;5106566;28;20464;-59
2021/10/23 11:37:51;;;;;;;6.33;1.80;;;12.80;1.00;;;;;;5098500;28;20471;-59
2021/10/23 11:40:17;;;;;;;6.67;2.20;;;;;;;;;;5104556;28;20418;-60
2021/10/23 11:42:47;;;;;;;5.33;1.90;;;12.60;1.00;;;;;;5099143;28;20799;-59
2021/10/23 11:45:15;;;;;;;2.47;1.40;;;12.40;1.00;;;;;;5100057;28;20443;-59
2021/10/23 11:47:41;;;;;;;5.50;2.03;;;12.40;1.00;;;;;;5103687;28;20511;-58
2021/10/23 11:50:17;;;;;;;3.40;1.87;;;12.10;1.00;;;;;;5096081;28;20441;-57
2021/10/23 11:52:50;;;;;;;8.13;2.23;;;12.00;1.00;;;;;;5096499;28;20562;-58
2021/10/23 11:55:35;;;;;;;7.23;2.27;;;11.80;1.00;;;;;;5094890;28;20479;-60
2021/10/23 11:58:15;;;;;;;6.23;2.27;;;11.90;1.00;;;;;;5077592;28;20433;-59
2021/10/23 12:00:49;;;;;;;4.70;1.40;;;12.00;1.00;;;;;;5098008;28;20448;-59
2021/10/23 12:03:31;;;;;;;3.50;1.83;;;12.20;1.00;;;;;;5094218;28;20441;-60
2021/10/23 12:05:57;;;;;;;6.57;1.57;;;;;;;;;;5094008;28;20420;-59
2021/10/23 12:08:28;;;;;;;3.50;1.30;;;12.40;1.00;;;;;;5095084;28;20448;-58
2021/10/23 12:10:59;;;;;;;4.93;1.57;;;12.50;1.00;;;;;;5076750;28;20449;-59
2021/10/23 12:13:26;;;;;;;8.70;2.17;;;12.40;1.00;;;;;;5101988;28;20463;-58
2021/10/23 12:16:05;;;;;;;5.77;2.00;;;;;;;;;;5100407;28;20477;-59
2021/10/23 12:18:35;;;;;;;11.23;2.10;;;12.30;1.00;;;;;;5097990;28;21000;-58
2021/10/23 12:21:19;;;;;;;5.13;2.10;;;12.30;1.00;;;;;;5094824;28;20440;-58
2021/10/23 12:23:55;;;;;;;6.57;2.13;;;12.60;1.00;;;;;;5099232;28;21186;-59
2021/10/23 12:26:26;;;;;;;5.60;2.30;;;12.70;1.00;;;;;;5093525;28;20453;-59
2021/10/23 12:29:03;;;;;;;4.40;1.53;;;12.60;1.00;;;;;;5108202;28;20465;-58
2021/10/23 12:31:56;;;;;;;7.30;2.43;;;12.60;1.00;;;;;;5093970;28;20527;-59
2021/10/23 12:34:23;;;;;;;7.30;2.30;;;12.30;1.00;;;;;;5096261;28;20884;-58
2021/10/23 12:36:58;;;;;;;4.10;2.07;;;12.50;1.00;;;;;;5106919;28;20548;-59
2021/10/23 12:39:28;;;;;;;8.37;2.50;;;12.50;1.00;;;;;;5095817;28;20490;-57
2021/10/23 12:41:55;;;;;;;5.53;1.50;;;12.50;1.00;;;;;;5095662;28;20444;-58
2021/10/23 12:44:25;;;;;;;4.70;1.60;;;;;;;;;;5093881;28;20786;-60
2021/10/23 12:46:53;;;;;;;6.40;1.70;;;12.70;1.00;;;;;;5095038;28;20477;-59
2021/10/23 12:49:20;;;;;;;4.33;2.20;;;12.80;1.00;;;;;;5096419;28;20437;-59
2021/10/23 12:51:46;;;;;;;4.97;1.90;;;;;;;;;;5095661;28;20822;-59
2021/10/23 12:54:15;;;;;;;3.60;2.10;;;12.50;1.00;;;;;;5093956;28;21273;-63
2021/10/23 12:56:41;;;;;;;4.60;2.57;;;12.50;1.00;;;;;;5105866;28;20457;-58
2021/10/23 12:59:08;;;;;;;3.93;1.53;;;12.50;1.00;;;;;;5099992;28;20447;-58
2021/10/23 13:01:34;;;;;;;5.87;2.50;;;12.50;1.00;;;;;;5108582;28;20669;-58
2021/10/23 13:04:00;;;;;;;7.20;2.57;;;12.50;1.00;;;;;;5109477;28;20412;-58
2021/10/23 13:06:26;;;;;;;2.80;1.40;;;;;;;;;;5106451;28;20447;-58
2021/10/23 13:08:52;;;;;;;5.57;1.67;;;;;;;;;;5097160;28;20190;-60
2021/10/23 13:11:18;;;;;;;9.33;2.03;;;;;;;;;;5095989;28;20449;-58
2021/10/23 13:13:44;;;;;;;4.40;2.10;;;12.60;1.00;;;;;;5100298;28;20544;-59
2021/10/23 13:16:10;;;;;;;8.30;2.03;;;12.70;1.00;;;;;;5094967;28;20472;-58
2021/10/23 13:18:37;;;;;;;5.93;2.37;;;12.60;1.00;;;;;;5103037;28;20482;-59
2021/10/23 13:21:06;;;;;;;7.57;2.00;;;12.70;1.00;;;;;;5100569;28;20420;-59
2021/10/23 13:23:33;;;;;;;5.90;2.13;;;12.80;1.00;;;;;;5092414;28;20438;-59
2021/10/23 13:25:58;;;;;;;6.10;1.87;;;13.00;1.00;;;;;;5095396;28;20450;-58
2021/10/23 13:28:24;;;;;;;3.67;2.10;;;;;;;;;;5095843;28;20445;-59
2021/10/23 13:30:51;;;;;;;5.23;1.93;;;;;;;;;;5096716;28;20182;-58
2021/10/23 13:33:17;;;;;;;5.80;1.90;;;13.00;1.00;;;;;;5108050;28;20510;-60
2021/10/23 13:35:42;;;;;;;4.70;2.20;;;13.30;1.00;;;;;;5074450;28;20548;-59
2021/10/23 13:38:08;;;;;;;6.10;1.90;;;;;;;;;;5103404;28;20190;-58
2021/10/23 13:40:34;;;;;;;3.87;1.53;;;12.80;1.00;;;;;;5075116;28;20180;-59
2021/10/23 13:43:00;;;;;;;5.23;2.17;;;12.70;1.00;;;;;;5092415;28;20995;-59